sensor_id;sensor_type;location;lat;lon;timestamp;P1;durP1;ratioP1;P2;durP2;ratioP2
29916;SDS011;16786;49.466;11.068;2024-02-21T00:00:47;22.77;;;6.00;;
29916;SDS011;16786;49.466;11.068;2024-02-21T00:03:14;18.88;;;5.57;;
29916;SDS011;16786;49.466;11.068;2024-02-21T00:05:41;12.57;;;6.07;;
29916;SDS011;16786;49.466;11.068;2024-02-21T00:08:09;15.60;;;6.35;;
29916;SDS011;16786;49.466;11.068;2024-02-21T00:10:36;14.55;;;5.40;;
29916;SDS011;16786;49.466;11.068;2024-02-21T00:13:03;13.38;;;6.18;;
29916;SDS011;16786;49.466;11.068;2024-02-21T00:15:30;14.20;;;5.93;;
29916;SDS011;16786;49.466;11.068;2024-02-21T00:17:57;17.35;;;5.13;;
29916;SDS011;16786;49.466;11.068;2024-02-21T00:20:24;19.58;;;6.70;;
29916;SDS011;16786;49.466;11.068;2024-02-21T00:22:52;22.67;;;6.10;;
29916;SDS011;16786;49.466;11.068;2024-02-21T00:25:19;14.18;;;5.55;;
29916;SDS011;16786;49.466;11.068;2024-02-21T00:27:46;14.57;;;5.85;;
29916;SDS011;16786;49.466;11.068;2024-02-21T00:30:13;13.52;;;6.13;;
29916;SDS011;16786;49.466;11.068;2024-02-21T00:32:40;24.15;;;6.38;;
29916;SDS011;16786;49.466;11.068;2024-02-21T00:35:07;13.73;;;5.95;;
29916;SDS011;16786;49.466;11.068;2024-02-21T00:37:34;16.27;;;5.78;;
29916;SDS011;16786;49.466;11.068;2024-02-21T00:40:01;13.93;;;5.85;;
29916;SDS011;16786;49.466;11.068;2024-02-21T00:42:28;20.55;;;5.80;;
29916;SDS011;16786;49.466;11.068;2024-02-21T00:44:55;16.45;;;6.03;;
29916;SDS011;16786;49.466;11.068;2024-02-21T00:47:23;16.65;;;5.95;;
29916;SDS011;16786;49.466;11.068;2024-02-21T00:49:50;19.88;;;5.88;;
29916;SDS011;16786;49.466;11.068;2024-02-21T00:52:17;17.83;;;6.43;;
29916;SDS011;16786;49.466;11.068;2024-02-21T00:54:44;15.52;;;5.45;;
29916;SDS011;16786;49.466;11.068;2024-02-21T00:57:19;12.55;;;4.93;;
29916;SDS011;16786;49.466;11.068;2024-02-21T00:59:47;16.02;;;6.10;;
29916;SDS011;16786;49.466;11.068;2024-02-21T01:02:14;15.63;;;5.85;;
29916;SDS011;16786;49.466;11.068;2024-02-21T01:04:41;19.00;;;5.65;;
29916;SDS011;16786;49.466;11.068;2024-02-21T01:07:08;14.90;;;6.38;;
29916;SDS011;16786;49.466;11.068;2024-02-21T01:09:35;16.67;;;6.38;;
29916;SDS011;16786;49.466;11.068;2024-02-21T01:12:02;17.95;;;6.00;;
29916;SDS011;16786;49.466;11.068;2024-02-21T01:14:29;18.77;;;7.07;;
29916;SDS011;16786;49.466;11.068;2024-02-21T01:16:57;17.38;;;5.95;;
29916;SDS011;16786;49.466;11.068;2024-02-21T01:19:24;12.80;;;5.60;;
29916;SDS011;16786;49.466;11.068;2024-02-21T01:21:51;13.20;;;6.03;;
29916;SDS011;16786;49.466;11.068;2024-02-21T01:24:18;16.98;;;6.05;;
29916;SDS011;16786;49.466;11.068;2024-02-21T01:26:45;20.00;;;6.10;;
29916;SDS011;16786;49.466;11.068;2024-02-21T01:29:13;13.82;;;5.43;;
29916;SDS011;16786;49.466;11.068;2024-02-21T01:31:39;15.65;;;5.45;;
29916;SDS011;16786;49.466;11.068;2024-02-21T01:34:06;21.00;;;5.95;;
29916;SDS011;16786;49.466;11.068;2024-02-21T01:36:33;16.27;;;5.32;;
29916;SDS011;16786;49.466;11.068;2024-02-21T01:39:00;14.20;;;5.57;;
29916;SDS011;16786;49.466;11.068;2024-02-21T01:41:29;13.32;;;5.55;;
29916;SDS011;16786;49.466;11.068;2024-02-21T01:43:57;19.27;;;6.07;;
29916;SDS011;16786;49.466;11.068;2024-02-21T01:46:24;17.10;;;6.05;;
29916;SDS011;16786;49.466;11.068;2024-02-21T01:48:55;18.73;;;5.90;;
29916;SDS011;16786;49.466;11.068;2024-02-21T01:51:24;17.00;;;5.97;;
29916;SDS011;16786;49.466;11.068;2024-02-21T01:53:51;11.07;;;5.40;;
29916;SDS011;16786;49.466;11.068;2024-02-21T01:56:22;15.80;;;5.30;;
29916;SDS011;16786;49.466;11.068;2024-02-21T01:58:49;19.65;;;6.00;;
29916;SDS011;16786;49.466;11.068;2024-02-21T02:01:17;12.88;;;5.47;;
29916;SDS011;16786;49.466;11.068;2024-02-21T02:03:47;19.27;;;5.65;;
29916;SDS011;16786;49.466;11.068;2024-02-21T02:06:16;12.50;;;5.45;;
29916;SDS011;16786;49.466;11.068;2024-02-21T02:08:43;18.13;;;5.82;;
29916;SDS011;16786;49.466;11.068;2024-02-21T02:11:12;20.40;;;6.10;;
29916;SDS011;16786;49.466;11.068;2024-02-21T02:13:40;17.63;;;5.80;;
29916;SDS011;16786;49.466;11.068;2024-02-21T02:16:07;17.63;;;6.03;;
29916;SDS011;16786;49.466;11.068;2024-02-21T02:18:35;21.27;;;6.35;;
29916;SDS011;16786;49.466;11.068;2024-02-21T02:21:03;17.73;;;5.30;;
29916;SDS011;16786;49.466;11.068;2024-02-21T02:23:35;14.35;;;5.32;;
29916;SDS011;16786;49.466;11.068;2024-02-21T02:26:02;16.80;;;6.05;;
29916;SDS011;16786;49.466;11.068;2024-02-21T02:28:29;16.33;;;5.88;;
29916;SDS011;16786;49.466;11.068;2024-02-21T02:30:56;18.95;;;6.43;;
29916;SDS011;16786;49.466;11.068;2024-02-21T02:33:23;13.25;;;5.70;;
29916;SDS011;16786;49.466;11.068;2024-02-21T02:35:50;12.73;;;5.30;;
29916;SDS011;16786;49.466;11.068;2024-02-21T02:38:17;18.58;;;6.57;;
29916;SDS011;16786;49.466;11.068;2024-02-21T02:40:44;15.63;;;6.20;;
29916;SDS011;16786;49.466;11.068;2024-02-21T02:43:11;18.45;;;5.70;;
29916;SDS011;16786;49.466;11.068;2024-02-21T02:45:38;18.60;;;7.55;;
29916;SDS011;16786;49.466;11.068;2024-02-21T02:48:05;15.00;;;5.63;;
29916;SDS011;16786;49.466;11.068;2024-02-21T02:50:33;19.77;;;6.15;;
29916;SDS011;16786;49.466;11.068;2024-02-21T02:53:00;17.95;;;5.60;;
29916;SDS011;16786;49.466;11.068;2024-02-21T02:55:27;13.93;;;5.68;;
29916;SDS011;16786;49.466;11.068;2024-02-21T02:57:54;19.60;;;5.47;;
29916;SDS011;16786;49.466;11.068;2024-02-21T03:00:22;21.35;;;5.72;;
29916;SDS011;16786;49.466;11.068;2024-02-21T03:02:49;16.75;;;5.80;;
29916;SDS011;16786;49.466;11.068;2024-02-21T03:05:18;17.55;;;5.63;;
29916;SDS011;16786;49.466;11.068;2024-02-21T03:07:47;12.88;;;5.25;;
29916;SDS011;16786;49.466;11.068;2024-02-21T03:10:14;18.02;;;6.22;;
29916;SDS011;16786;49.466;11.068;2024-02-21T03:12:44;20.70;;;5.47;;
29916;SDS011;16786;49.466;11.068;2024-02-21T03:15:11;16.67;;;5.30;;
29916;SDS011;16786;49.466;11.068;2024-02-21T03:17:39;16.23;;;5.68;;
29916;SDS011;16786;49.466;11.068;2024-02-21T03:20:07;16.45;;;5.60;;
29916;SDS011;16786;49.466;11.068;2024-02-21T03:25:08;12.27;;;4.88;;
29916;SDS011;16786;49.466;11.068;2024-02-21T03:27:35;14.93;;;4.93;;
29916;SDS011;16786;49.466;11.068;2024-02-21T03:30:03;15.85;;;6.30;;
29916;SDS011;16786;49.466;11.068;2024-02-21T03:32:31;14.68;;;5.65;;
29916;SDS011;16786;49.466;11.068;2024-02-21T03:34:58;17.13;;;5.22;;
29916;SDS011;16786;49.466;11.068;2024-02-21T03:37:25;15.57;;;5.50;;
29916;SDS011;16786;49.466;11.068;2024-02-21T03:39:52;15.95;;;5.93;;
29916;SDS011;16786;49.466;11.068;2024-02-21T03:42:19;13.68;;;5.10;;
29916;SDS011;16786;49.466;11.068;2024-02-21T03:44:46;18.98;;;4.82;;
29916;SDS011;16786;49.466;11.068;2024-02-21T03:47:12;14.05;;;4.95;;
29916;SDS011;16786;49.466;11.068;2024-02-21T03:49:39;13.65;;;5.60;;
29916;SDS011;16786;49.466;11.068;2024-02-21T03:52:06;17.17;;;4.85;;
29916;SDS011;16786;49.466;11.068;2024-02-21T03:54:34;15.23;;;5.18;;
29916;SDS011;16786;49.466;11.068;2024-02-21T03:57:01;16.02;;;5.00;;
29916;SDS011;16786;49.466;11.068;2024-02-21T03:59:29;13.13;;;5.25;;
29916;SDS011;16786;49.466;11.068;2024-02-21T04:01:56;25.30;;;6.82;;
29916;SDS011;16786;49.466;11.068;2024-02-21T04:04:23;16.27;;;5.13;;
29916;SDS011;16786;49.466;11.068;2024-02-21T04:06:50;12.48;;;4.95;;
29916;SDS011;16786;49.466;11.068;2024-02-21T04:09:18;16.70;;;5.05;;
29916;SDS011;16786;49.466;11.068;2024-02-21T04:11:45;15.93;;;4.80;;
29916;SDS011;16786;49.466;11.068;2024-02-21T04:14:12;14.10;;;4.90;;
29916;SDS011;16786;49.466;11.068;2024-02-21T04:16:39;14.75;;;5.47;;
29916;SDS011;16786;49.466;11.068;2024-02-21T04:19:06;15.65;;;5.70;;
29916;SDS011;16786;49.466;11.068;2024-02-21T04:21:34;19.80;;;5.10;;
29916;SDS011;16786;49.466;11.068;2024-02-21T04:24:02;15.27;;;5.45;;
29916;SDS011;16786;49.466;11.068;2024-02-21T04:26:32;11.38;;;4.35;;
29916;SDS011;16786;49.466;11.068;2024-02-21T04:28:59;14.07;;;5.15;;
29916;SDS011;16786;49.466;11.068;2024-02-21T04:31:27;14.55;;;5.05;;
29916;SDS011;16786;49.466;11.068;2024-02-21T04:33:54;11.40;;;4.72;;
29916;SDS011;16786;49.466;11.068;2024-02-21T04:36:21;10.68;;;4.68;;
29916;SDS011;16786;49.466;11.068;2024-02-21T04:38:48;16.83;;;5.53;;
29916;SDS011;16786;49.466;11.068;2024-02-21T04:41:16;17.00;;;5.32;;
29916;SDS011;16786;49.466;11.068;2024-02-21T04:43:45;17.52;;;4.97;;
29916;SDS011;16786;49.466;11.068;2024-02-21T04:46:13;19.00;;;4.97;;
29916;SDS011;16786;49.466;11.068;2024-02-21T04:48:40;14.18;;;4.95;;
29916;SDS011;16786;49.466;11.068;2024-02-21T04:51:07;13.50;;;5.53;;
29916;SDS011;16786;49.466;11.068;2024-02-21T04:53:34;12.95;;;4.85;;
29916;SDS011;16786;49.466;11.068;2024-02-21T04:56:01;15.65;;;5.40;;
29916;SDS011;16786;49.466;11.068;2024-02-21T04:58:28;18.05;;;5.38;;
29916;SDS011;16786;49.466;11.068;2024-02-21T05:00:55;11.52;;;5.38;;
29916;SDS011;16786;49.466;11.068;2024-02-21T05:03:23;17.83;;;5.35;;
29916;SDS011;16786;49.466;11.068;2024-02-21T05:05:50;11.05;;;4.93;;
29916;SDS011;16786;49.466;11.068;2024-02-21T05:08:17;12.57;;;5.63;;
29916;SDS011;16786;49.466;11.068;2024-02-21T05:10:44;11.60;;;4.97;;
29916;SDS011;16786;49.466;11.068;2024-02-21T05:13:11;12.95;;;5.10;;
29916;SDS011;16786;49.466;11.068;2024-02-21T05:15:38;15.32;;;5.80;;
29916;SDS011;16786;49.466;11.068;2024-02-21T05:18:05;12.07;;;4.93;;
29916;SDS011;16786;49.466;11.068;2024-02-21T05:20:32;14.20;;;5.20;;
29916;SDS011;16786;49.466;11.068;2024-02-21T05:22:59;15.30;;;5.38;;
29916;SDS011;16786;49.466;11.068;2024-02-21T05:25:26;11.23;;;5.13;;
29916;SDS011;16786;49.466;11.068;2024-02-21T05:27:53;16.52;;;5.30;;
29916;SDS011;16786;49.466;11.068;2024-02-21T05:30:22;14.38;;;4.82;;
29916;SDS011;16786;49.466;11.068;2024-02-21T05:32:48;12.40;;;5.53;;
29916;SDS011;16786;49.466;11.068;2024-02-21T05:35:15;13.95;;;5.22;;
29916;SDS011;16786;49.466;11.068;2024-02-21T05:37:43;12.68;;;4.80;;
29916;SDS011;16786;49.466;11.068;2024-02-21T05:40:10;14.68;;;5.40;;
29916;SDS011;16786;49.466;11.068;2024-02-21T05:42:39;14.63;;;5.43;;
29916;SDS011;16786;49.466;11.068;2024-02-21T05:45:06;15.27;;;5.18;;
29916;SDS011;16786;49.466;11.068;2024-02-21T05:47:33;18.77;;;5.47;;
29916;SDS011;16786;49.466;11.068;2024-02-21T05:50:01;16.95;;;5.45;;
29916;SDS011;16786;49.466;11.068;2024-02-21T05:52:29;20.17;;;5.70;;
29916;SDS011;16786;49.466;11.068;2024-02-21T05:54:56;12.15;;;5.30;;
29916;SDS011;16786;49.466;11.068;2024-02-21T05:57:23;17.70;;;5.55;;
29916;SDS011;16786;49.466;11.068;2024-02-21T05:59:50;17.45;;;5.63;;
29916;SDS011;16786;49.466;11.068;2024-02-21T06:02:17;18.25;;;5.85;;
29916;SDS011;16786;49.466;11.068;2024-02-21T06:04:43;12.82;;;5.78;;
29916;SDS011;16786;49.466;11.068;2024-02-21T06:07:12;18.25;;;5.57;;
29916;SDS011;16786;49.466;11.068;2024-02-21T06:09:40;15.05;;;5.72;;
29916;SDS011;16786;49.466;11.068;2024-02-21T06:12:06;21.38;;;7.10;;
29916;SDS011;16786;49.466;11.068;2024-02-21T06:14:34;17.52;;;6.60;;
29916;SDS011;16786;49.466;11.068;2024-02-21T06:17:00;14.07;;;5.25;;
29916;SDS011;16786;49.466;11.068;2024-02-21T06:19:27;18.75;;;5.78;;
29916;SDS011;16786;49.466;11.068;2024-02-21T06:21:54;14.95;;;5.03;;
29916;SDS011;16786;49.466;11.068;2024-02-21T06:24:21;15.68;;;5.70;;
29916;SDS011;16786;49.466;11.068;2024-02-21T06:26:48;18.73;;;6.13;;
29916;SDS011;16786;49.466;11.068;2024-02-21T06:29:15;14.00;;;5.05;;
29916;SDS011;16786;49.466;11.068;2024-02-21T06:31:42;20.55;;;6.45;;
29916;SDS011;16786;49.466;11.068;2024-02-21T06:34:09;17.52;;;5.78;;
29916;SDS011;16786;49.466;11.068;2024-02-21T06:36:36;12.82;;;5.45;;
29916;SDS011;16786;49.466;11.068;2024-02-21T06:39:03;15.77;;;6.03;;
29916;SDS011;16786;49.466;11.068;2024-02-21T06:41:33;17.83;;;5.13;;
29916;SDS011;16786;49.466;11.068;2024-02-21T06:44:01;17.38;;;5.68;;
29916;SDS011;16786;49.466;11.068;2024-02-21T06:46:29;15.38;;;5.68;;
29916;SDS011;16786;49.466;11.068;2024-02-21T06:48:58;12.65;;;5.70;;
29916;SDS011;16786;49.466;11.068;2024-02-21T06:51:26;14.32;;;5.38;;
29916;SDS011;16786;49.466;11.068;2024-02-21T06:53:54;11.35;;;5.85;;
29916;SDS011;16786;49.466;11.068;2024-02-21T06:56:24;18.15;;;5.63;;
29916;SDS011;16786;49.466;11.068;2024-02-21T06:58:55;16.98;;;5.57;;
29916;SDS011;16786;49.466;11.068;2024-02-21T07:01:26;12.40;;;5.32;;
29916;SDS011;16786;49.466;11.068;2024-02-21T07:03:53;15.45;;;5.88;;
29916;SDS011;16786;49.466;11.068;2024-02-21T07:06:20;18.35;;;5.93;;
29916;SDS011;16786;49.466;11.068;2024-02-21T07:08:47;14.13;;;5.68;;
29916;SDS011;16786;49.466;11.068;2024-02-21T07:11:13;24.60;;;9.73;;
29916;SDS011;16786;49.466;11.068;2024-02-21T07:13:41;14.70;;;5.75;;
29916;SDS011;16786;49.466;11.068;2024-02-21T07:16:08;15.82;;;5.10;;
29916;SDS011;16786;49.466;11.068;2024-02-21T07:18:35;16.23;;;5.75;;
29916;SDS011;16786;49.466;11.068;2024-02-21T07:21:02;14.88;;;4.93;;
29916;SDS011;16786;49.466;11.068;2024-02-21T07:23:29;14.52;;;5.35;;
29916;SDS011;16786;49.466;11.068;2024-02-21T07:25:55;17.58;;;5.72;;
29916;SDS011;16786;49.466;11.068;2024-02-21T07:28:23;13.85;;;5.20;;
29916;SDS011;16786;49.466;11.068;2024-02-21T07:30:49;13.20;;;5.50;;
29916;SDS011;16786;49.466;11.068;2024-02-21T07:33:16;15.82;;;6.18;;
29916;SDS011;16786;49.466;11.068;2024-02-21T07:35:43;12.68;;;5.43;;
29916;SDS011;16786;49.466;11.068;2024-02-21T07:38:11;12.85;;;5.45;;
29916;SDS011;16786;49.466;11.068;2024-02-21T07:40:39;11.70;;;5.45;;
29916;SDS011;16786;49.466;11.068;2024-02-21T07:43:06;15.63;;;5.53;;
29916;SDS011;16786;49.466;11.068;2024-02-21T07:45:33;21.85;;;8.73;;
29916;SDS011;16786;49.466;11.068;2024-02-21T07:48:00;12.63;;;5.25;;
29916;SDS011;16786;49.466;11.068;2024-02-21T07:50:28;12.32;;;5.18;;
29916;SDS011;16786;49.466;11.068;2024-02-21T07:52:55;12.55;;;5.20;;
29916;SDS011;16786;49.466;11.068;2024-02-21T07:55:22;14.05;;;5.25;;
29916;SDS011;16786;49.466;11.068;2024-02-21T07:57:49;10.80;;;5.03;;
29916;SDS011;16786;49.466;11.068;2024-02-21T08:00:16;17.15;;;6.13;;
29916;SDS011;16786;49.466;11.068;2024-02-21T08:02:47;13.55;;;5.28;;
29916;SDS011;16786;49.466;11.068;2024-02-21T08:05:15;13.52;;;5.65;;
29916;SDS011;16786;49.466;11.068;2024-02-21T08:07:42;14.07;;;4.85;;
29916;SDS011;16786;49.466;11.068;2024-02-21T08:10:09;9.90;;;4.75;;
29916;SDS011;16786;49.466;11.068;2024-02-21T08:12:36;11.50;;;5.55;;
29916;SDS011;16786;49.466;11.068;2024-02-21T08:15:04;13.50;;;5.47;;
29916;SDS011;16786;49.466;11.068;2024-02-21T08:17:31;14.70;;;5.15;;
29916;SDS011;16786;49.466;11.068;2024-02-21T08:19:58;10.30;;;5.15;;
29916;SDS011;16786;49.466;11.068;2024-02-21T08:22:25;16.67;;;4.97;;
29916;SDS011;16786;49.466;11.068;2024-02-21T08:24:53;15.52;;;4.53;;
29916;SDS011;16786;49.466;11.068;2024-02-21T08:27:20;12.43;;;4.70;;
29916;SDS011;16786;49.466;11.068;2024-02-21T08:29:47;13.90;;;5.15;;
29916;SDS011;16786;49.466;11.068;2024-02-21T08:32:14;20.63;;;8.52;;
29916;SDS011;16786;49.466;11.068;2024-02-21T08:34:41;9.38;;;4.55;;
29916;SDS011;16786;49.466;11.068;2024-02-21T08:37:08;14.23;;;4.70;;
29916;SDS011;16786;49.466;11.068;2024-02-21T08:39:37;9.45;;;4.32;;
29916;SDS011;16786;49.466;11.068;2024-02-21T08:42:04;10.73;;;4.47;;
29916;SDS011;16786;49.466;11.068;2024-02-21T08:44:31;8.10;;;4.32;;
29916;SDS011;16786;49.466;11.068;2024-02-21T08:46:58;12.13;;;4.88;;
29916;SDS011;16786;49.466;11.068;2024-02-21T08:49:26;10.75;;;4.55;;
29916;SDS011;16786;49.466;11.068;2024-02-21T08:52:00;13.45;;;3.92;;
29916;SDS011;16786;49.466;11.068;2024-02-21T08:54:28;11.80;;;4.55;;
29916;SDS011;16786;49.466;11.068;2024-02-21T08:56:55;13.20;;;5.30;;
29916;SDS011;16786;49.466;11.068;2024-02-21T08:59:23;14.70;;;4.97;;
29916;SDS011;16786;49.466;11.068;2024-02-21T09:01:51;12.10;;;4.38;;
29916;SDS011;16786;49.466;11.068;2024-02-21T09:04:19;12.30;;;4.40;;
29916;SDS011;16786;49.466;11.068;2024-02-21T09:06:46;10.45;;;4.38;;
29916;SDS011;16786;49.466;11.068;2024-02-21T09:09:14;14.15;;;4.38;;
29916;SDS011;16786;49.466;11.068;2024-02-21T09:11:41;9.88;;;4.05;;
29916;SDS011;16786;49.466;11.068;2024-02-21T09:14:08;15.75;;;5.40;;
29916;SDS011;16786;49.466;11.068;2024-02-21T09:16:35;9.80;;;4.50;;
29916;SDS011;16786;49.466;11.068;2024-02-21T09:19:02;11.35;;;4.03;;
29916;SDS011;16786;49.466;11.068;2024-02-21T09:21:29;12.55;;;3.97;;
29916;SDS011;16786;49.466;11.068;2024-02-21T09:23:56;12.90;;;3.92;;
29916;SDS011;16786;49.466;11.068;2024-02-21T09:26:26;12.25;;;4.10;;
29916;SDS011;16786;49.466;11.068;2024-02-21T09:28:53;9.73;;;4.30;;
29916;SDS011;16786;49.466;11.068;2024-02-21T09:31:20;13.25;;;4.38;;
29916;SDS011;16786;49.466;11.068;2024-02-21T09:33:47;11.93;;;4.70;;
29916;SDS011;16786;49.466;11.068;2024-02-21T09:36:15;10.32;;;4.47;;
29916;SDS011;16786;49.466;11.068;2024-02-21T09:38:42;12.15;;;4.28;;
29916;SDS011;16786;49.466;11.068;2024-02-21T09:41:16;10.15;;;4.55;;
29916;SDS011;16786;49.466;11.068;2024-02-21T09:43:51;8.55;;;4.20;;
29916;SDS011;16786;49.466;11.068;2024-02-21T09:46:24;8.30;;;4.35;;
29916;SDS011;16786;49.466;11.068;2024-02-21T09:49:13;13.93;;;4.63;;
29916;SDS011;16786;49.466;11.068;2024-02-21T09:52:01;10.73;;;4.55;;
29916;SDS011;16786;49.466;11.068;2024-02-21T09:54:33;9.07;;;4.18;;
29916;SDS011;16786;49.466;11.068;2024-02-21T09:57:00;8.93;;;4.05;;
29916;SDS011;16786;49.466;11.068;2024-02-21T09:59:30;10.43;;;4.43;;
29916;SDS011;16786;49.466;11.068;2024-02-21T10:01:58;8.18;;;4.53;;
29916;SDS011;16786;49.466;11.068;2024-02-21T10:04:27;10.10;;;4.40;;
29916;SDS011;16786;49.466;11.068;2024-02-21T10:06:54;10.95;;;4.68;;
29916;SDS011;16786;49.466;11.068;2024-02-21T10:09:27;8.20;;;4.07;;
29916;SDS011;16786;49.466;11.068;2024-02-21T10:11:56;10.65;;;4.18;;
29916;SDS011;16786;49.466;11.068;2024-02-21T10:14:34;14.75;;;4.97;;
29916;SDS011;16786;49.466;11.068;2024-02-21T10:17:01;12.00;;;4.22;;
29916;SDS011;16786;49.466;11.068;2024-02-21T10:19:29;10.27;;;4.28;;
29916;SDS011;16786;49.466;11.068;2024-02-21T10:22:00;9.63;;;4.60;;
29916;SDS011;16786;49.466;11.068;2024-02-21T10:24:31;11.15;;;4.57;;
29916;SDS011;16786;49.466;11.068;2024-02-21T10:27:04;10.73;;;5.70;;
29916;SDS011;16786;49.466;11.068;2024-02-21T10:29:35;7.63;;;4.63;;
29916;SDS011;16786;49.466;11.068;2024-02-21T10:34:35;10.05;;;4.18;;
29916;SDS011;16786;49.466;11.068;2024-02-21T10:37:07;12.38;;;4.30;;
29916;SDS011;16786;49.466;11.068;2024-02-21T10:39:41;8.57;;;3.80;;
29916;SDS011;16786;49.466;11.068;2024-02-21T10:42:11;8.82;;;4.45;;
29916;SDS011;16786;49.466;11.068;2024-02-21T10:44:39;9.00;;;4.35;;
29916;SDS011;16786;49.466;11.068;2024-02-21T10:47:08;12.00;;;4.72;;
29916;SDS011;16786;49.466;11.068;2024-02-21T10:49:38;11.77;;;4.05;;
29916;SDS011;16786;49.466;11.068;2024-02-21T10:52:13;8.88;;;4.53;;
29916;SDS011;16786;49.466;11.068;2024-02-21T10:54:45;11.32;;;4.18;;
29916;SDS011;16786;49.466;11.068;2024-02-21T10:57:19;10.10;;;4.10;;
29916;SDS011;16786;49.466;11.068;2024-02-21T10:59:48;9.75;;;4.38;;
29916;SDS011;16786;49.466;11.068;2024-02-21T11:02:16;15.52;;;5.18;;
29916;SDS011;16786;49.466;11.068;2024-02-21T11:04:43;10.45;;;4.55;;
29916;SDS011;16786;49.466;11.068;2024-02-21T11:07:12;9.98;;;4.50;;
29916;SDS011;16786;49.466;11.068;2024-02-21T11:09:40;9.82;;;4.15;;
29916;SDS011;16786;49.466;11.068;2024-02-21T11:12:19;9.13;;;4.63;;
29916;SDS011;16786;49.466;11.068;2024-02-21T11:14:47;6.78;;;4.10;;
29916;SDS011;16786;49.466;11.068;2024-02-21T11:17:18;8.80;;;4.18;;
29916;SDS011;16786;49.466;11.068;2024-02-21T11:19:47;6.80;;;4.55;;
29916;SDS011;16786;49.466;11.068;2024-02-21T11:22:15;7.15;;;4.30;;
29916;SDS011;16786;49.466;11.068;2024-02-21T11:24:48;8.88;;;4.32;;
29916;SDS011;16786;49.466;11.068;2024-02-21T11:27:16;9.65;;;4.63;;
29916;SDS011;16786;49.466;11.068;2024-02-21T11:29:56;9.00;;;4.15;;
29916;SDS011;16786;49.466;11.068;2024-02-21T11:32:24;9.15;;;4.63;;
29916;SDS011;16786;49.466;11.068;2024-02-21T11:35:10;9.88;;;4.55;;
29916;SDS011;16786;49.466;11.068;2024-02-21T11:37:45;9.02;;;4.68;;
29916;SDS011;16786;49.466;11.068;2024-02-21T11:40:13;9.35;;;5.30;;
29916;SDS011;16786;49.466;11.068;2024-02-21T11:42:40;9.07;;;5.00;;
29916;SDS011;16786;49.466;11.068;2024-02-21T11:45:07;9.27;;;5.07;;
29916;SDS011;16786;49.466;11.068;2024-02-21T11:47:37;14.65;;;5.88;;
29916;SDS011;16786;49.466;11.068;2024-02-21T11:50:09;13.70;;;5.10;;
29916;SDS011;16786;49.466;11.068;2024-02-21T11:52:37;6.63;;;4.68;;
29916;SDS011;16786;49.466;11.068;2024-02-21T11:55:04;12.73;;;5.75;;
29916;SDS011;16786;49.466;11.068;2024-02-21T11:57:34;11.15;;;4.95;;
29916;SDS011;16786;49.466;11.068;2024-02-21T12:00:11;7.78;;;4.50;;
29916;SDS011;16786;49.466;11.068;2024-02-21T12:02:45;8.57;;;4.82;;
29916;SDS011;16786;49.466;11.068;2024-02-21T12:05:13;10.18;;;5.32;;
29916;SDS011;16786;49.466;11.068;2024-02-21T12:07:40;6.63;;;4.60;;
29916;SDS011;16786;49.466;11.068;2024-02-21T12:10:08;7.18;;;4.70;;
29916;SDS011;16786;49.466;11.068;2024-02-21T12:12:37;7.63;;;4.90;;
29916;SDS011;16786;49.466;11.068;2024-02-21T12:15:05;9.88;;;4.90;;
29916;SDS011;16786;49.466;11.068;2024-02-21T12:17:34;10.68;;;5.15;;
29916;SDS011;16786;49.466;11.068;2024-02-21T12:20:04;8.63;;;4.90;;
29916;SDS011;16786;49.466;11.068;2024-02-21T12:22:36;8.10;;;4.88;;
29916;SDS011;16786;49.466;11.068;2024-02-21T12:25:18;9.63;;;4.63;;
29916;SDS011;16786;49.466;11.068;2024-02-21T12:27:49;8.65;;;4.53;;
29916;SDS011;16786;49.466;11.068;2024-02-21T12:30:16;8.50;;;5.18;;
29916;SDS011;16786;49.466;11.068;2024-02-21T12:32:43;7.20;;;5.05;;
29916;SDS011;16786;49.466;11.068;2024-02-21T12:35:10;9.57;;;5.20;;
29916;SDS011;16786;49.466;11.068;2024-02-21T12:37:38;7.07;;;5.05;;
29916;SDS011;16786;49.466;11.068;2024-02-21T12:40:06;9.75;;;6.28;;
29916;SDS011;16786;49.466;11.068;2024-02-21T12:42:34;13.10;;;5.78;;
29916;SDS011;16786;49.466;11.068;2024-02-21T12:45:02;8.60;;;5.57;;
29916;SDS011;16786;49.466;11.068;2024-02-21T12:47:32;8.15;;;5.15;;
29916;SDS011;16786;49.466;11.068;2024-02-21T12:49:59;9.10;;;5.40;;
29916;SDS011;16786;49.466;11.068;2024-02-21T12:52:26;9.20;;;5.38;;
29916;SDS011;16786;49.466;11.068;2024-02-21T12:54:53;8.75;;;4.82;;
29916;SDS011;16786;49.466;11.068;2024-02-21T12:57:23;7.05;;;5.10;;
29916;SDS011;16786;49.466;11.068;2024-02-21T12:59:53;8.20;;;5.40;;
29916;SDS011;16786;49.466;11.068;2024-02-21T13:02:20;8.65;;;4.70;;
29916;SDS011;16786;49.466;11.068;2024-02-21T13:04:47;7.45;;;5.40;;
29916;SDS011;16786;49.466;11.068;2024-02-21T13:07:14;14.52;;;6.47;;
29916;SDS011;16786;49.466;11.068;2024-02-21T13:09:41;6.72;;;4.63;;
29916;SDS011;16786;49.466;11.068;2024-02-21T13:12:08;8.15;;;5.07;;
29916;SDS011;16786;49.466;11.068;2024-02-21T13:14:35;9.25;;;5.00;;
29916;SDS011;16786;49.466;11.068;2024-02-21T13:17:05;8.45;;;5.47;;
29916;SDS011;16786;49.466;11.068;2024-02-21T13:19:32;10.73;;;5.13;;
29916;SDS011;16786;49.466;11.068;2024-02-21T13:21:59;7.55;;;5.20;;
29916;SDS011;16786;49.466;11.068;2024-02-21T13:24:26;8.73;;;5.55;;
29916;SDS011;16786;49.466;11.068;2024-02-21T13:26:53;12.15;;;5.38;;
29916;SDS011;16786;49.466;11.068;2024-02-21T13:29:20;7.13;;;5.18;;
29916;SDS011;16786;49.466;11.068;2024-02-21T13:31:47;8.52;;;5.47;;
29916;SDS011;16786;49.466;11.068;2024-02-21T13:34:14;7.00;;;4.90;;
29916;SDS011;16786;49.466;11.068;2024-02-21T13:36:42;6.93;;;5.55;;
29916;SDS011;16786;49.466;11.068;2024-02-21T13:39:09;6.90;;;5.30;;
29916;SDS011;16786;49.466;11.068;2024-02-21T13:41:39;7.53;;;5.28;;
29916;SDS011;16786;49.466;11.068;2024-02-21T13:44:06;6.93;;;4.93;;
29916;SDS011;16786;49.466;11.068;2024-02-21T13:46:33;7.97;;;5.03;;
29916;SDS011;16786;49.466;11.068;2024-02-21T13:49:04;7.97;;;5.32;;
29916;SDS011;16786;49.466;11.068;2024-02-21T13:51:33;9.00;;;5.30;;
29916;SDS011;16786;49.466;11.068;2024-02-21T13:54:02;7.38;;;5.65;;
29916;SDS011;16786;49.466;11.068;2024-02-21T13:56:30;8.07;;;5.50;;
29916;SDS011;16786;49.466;11.068;2024-02-21T13:58:58;8.30;;;5.30;;
29916;SDS011;16786;49.466;11.068;2024-02-21T14:01:26;7.05;;;5.05;;
29916;SDS011;16786;49.466;11.068;2024-02-21T14:03:58;7.40;;;4.53;;
29916;SDS011;16786;49.466;11.068;2024-02-21T14:06:25;5.63;;;4.75;;
29916;SDS011;16786;49.466;11.068;2024-02-21T14:08:53;5.78;;;4.65;;
29916;SDS011;16786;49.466;11.068;2024-02-21T14:11:19;7.50;;;4.78;;
29916;SDS011;16786;49.466;11.068;2024-02-21T14:13:47;7.93;;;5.07;;
29916;SDS011;16786;49.466;11.068;2024-02-21T14:16:14;6.50;;;4.32;;
29916;SDS011;16786;49.466;11.068;2024-02-21T14:18:41;7.20;;;4.85;;
29916;SDS011;16786;49.466;11.068;2024-02-21T14:21:09;6.22;;;5.15;;
29916;SDS011;16786;49.466;11.068;2024-02-21T14:23:37;8.27;;;5.10;;
29916;SDS011;16786;49.466;11.068;2024-02-21T14:26:04;6.20;;;4.53;;
29916;SDS011;16786;49.466;11.068;2024-02-21T14:28:32;5.25;;;4.38;;
29916;SDS011;16786;49.466;11.068;2024-02-21T14:31:03;8.63;;;5.13;;
29916;SDS011;16786;49.466;11.068;2024-02-21T14:33:32;6.95;;;4.57;;
29916;SDS011;16786;49.466;11.068;2024-02-21T14:35:59;9.73;;;5.13;;